KPRC/PRC METAR and TAF weather

Enter ICAO airport designator
Station Type Date Time Source
KPRC METAR 2020/06/02 15:53 UTC NOAA

KPRC 021553Z 09006KT 10SM CLR 26/M02 A3021 RMK AO2 SLP147 T02561017


Station Type Date Time Source
KPRC Decoded METAR 2020/06/02 15:53 UTC NOAA

PRESCOTT LOVE FIELD, AZ, United States (KPRC) 34-39N 112-25W 1524M
Jun 02, 2020 - 11:53 AM EDT / 2020.06.02 1553 UTC
Wind: from the E (090 degrees) at 7 MPH (6 KT):0
Visibility: 10 mile(s):0
Sky conditions: clear
Temperature: 78.1 F (25.6 C)
Dew Point: 28.9 F (-1.7 C)
Relative Humidity: 16%
Pressure (altimeter): 30.21 in. Hg (1023 hPa)
ob: KPRC 021553Z 09006KT 10SM CLR 26/M02 A3021 RMK AO2 SLP147 T02561017
cycle: 16

Station Type Date Time Source
KPRC TAF 2020/06/02 12:22 UTC NOAA

TAF KPRC 021120Z 0212/0312 19005KT P6SM SCT120
FM022000 23010G16KT P6SM FEW110
FM022300 20005KT P6SM FEW110

Example: see airport list